createdAt,value
2022-09-21T00:00:15.435Z,1.90
2022-09-21T00:01:26.376Z,1.80
2022-09-21T00:02:29.354Z,1.40
2022-09-21T00:03:32.161Z,1.50
2022-09-21T00:04:34.287Z,1.60
2022-09-21T00:05:36.375Z,2.30
2022-09-21T00:06:38.800Z,2.40
2022-09-21T00:07:42.238Z,2.20
2022-09-21T00:08:44.882Z,0.90
2022-09-21T00:09:47.366Z,2.10
2022-09-21T00:10:50.146Z,1.73
2022-09-21T00:11:56.317Z,1.80
2022-09-21T00:12:56.972Z,1.50
2022-09-21T00:14:02.578Z,1.45
2022-09-21T00:15:06.973Z,2.40
2022-09-21T00:16:09.804Z,1.70
2022-09-21T00:17:12.075Z,2.70
2022-09-21T00:18:15.911Z,1.10
2022-09-21T00:19:18.309Z,1.70
2022-09-21T00:20:21.631Z,2.50
2022-09-21T00:21:25.579Z,1.40
2022-09-21T00:22:27.995Z,2.70
2022-09-21T00:23:30.194Z,1.70
2022-09-21T00:24:32.892Z,2.00
2022-09-21T00:25:35.182Z,2.10
2022-09-21T00:26:37.387Z,2.50
2022-09-21T00:27:39.771Z,1.80
2022-09-21T00:28:41.915Z,2.60
2022-09-21T00:29:44.024Z,1.40
2022-09-21T00:30:46.508Z,1.80
2022-09-21T00:31:48.592Z,1.40
2022-09-21T00:32:52.471Z,1.90
2022-09-21T00:33:54.638Z,2.30
2022-09-21T00:34:59.884Z,1.80
2022-09-21T00:36:04.124Z,1.40
2022-09-21T00:37:06.955Z,1.20
2022-09-21T00:38:09.057Z,1.70
2022-09-21T00:39:11.419Z,2.60
2022-09-21T00:40:13.841Z,1.90
2022-09-21T00:41:16.036Z,2.00
2022-09-21T00:42:26.624Z,2.10
2022-09-21T00:43:29.675Z,1.50
2022-09-21T00:44:32.669Z,1.70
2022-09-21T00:45:34.998Z,1.80
2022-09-21T00:46:37.360Z,2.60
2022-09-21T00:47:40.838Z,1.70
2022-09-21T00:48:42.966Z,2.20
2022-09-21T00:49:47.557Z,2.00
2022-09-21T00:50:52.008Z,2.20
2022-09-21T00:51:54.741Z,1.70
2022-09-21T00:52:57.890Z,1.73
2022-09-21T00:54:02.153Z,2.10
2022-09-21T00:55:08.307Z,2.00
2022-09-21T00:56:11.878Z,1.20
2022-09-21T00:57:14.160Z,1.90
2022-09-21T00:58:19.301Z,1.60
2022-09-21T00:59:22.014Z,1.40
2022-09-21T01:00:26.259Z,1.90
2022-09-21T01:01:28.409Z,1.60
2022-09-21T01:02:30.775Z,0.80
2022-09-21T01:03:32.929Z,2.30
2022-09-21T01:04:35.128Z,1.80
2022-09-21T01:05:37.242Z,1.80
2022-09-21T01:06:39.564Z,1.70
2022-09-21T01:07:44.056Z,2.20
2022-09-21T01:08:47.190Z,2.40
2022-09-21T01:09:51.248Z,1.40
2022-09-21T01:12:40.688Z,2.00
2022-09-21T01:14:07.940Z,1.70
2022-09-21T01:15:23.984Z,2.90
2022-09-21T01:16:40.736Z,2.10
2022-09-21T01:17:52.318Z,1.90
2022-09-21T01:19:03.898Z,2.10
2022-09-21T01:20:16.048Z,1.20
2022-09-21T01:21:25.178Z,1.80
2022-09-21T01:24:01.767Z,2.10
2022-09-21T01:25:32.136Z,1.70
2022-09-21T01:27:04.172Z,1.70
2022-09-21T01:28:26.698Z,1.80
2022-09-21T01:30:51.066Z,0.00
2022-09-21T01:32:20.837Z,1.10
2022-09-21T01:33:29.316Z,2.60
2022-09-21T01:34:47.334Z,0.90
2022-09-21T01:35:57.569Z,2.00
2022-09-21T01:37:02.724Z,1.70
2022-09-21T01:38:07.168Z,1.50
2022-09-21T01:39:11.616Z,1.90
2022-09-21T01:40:20.836Z,1.70
2022-09-21T01:41:24.839Z,1.80
2022-09-21T01:42:27.102Z,0.90
2022-09-21T01:44:49.979Z,2.20
2022-09-21T01:45:53.548Z,1.70
2022-09-21T01:46:56.155Z,1.90
2022-09-21T01:47:59.350Z,1.80
2022-09-21T01:49:07.439Z,1.20
2022-09-21T01:50:10.185Z,1.80
2022-09-21T01:51:14.243Z,1.90
2022-09-21T01:52:28.693Z,1.20
2022-09-21T01:54:54.870Z,1.50
2022-09-21T01:56:24.561Z,1.20
2022-09-21T01:57:49.382Z,1.60
2022-09-21T01:59:04.894Z,1.50
2022-09-21T02:00:08.409Z,2.20
2022-09-21T02:01:17.646Z,1.60
2022-09-21T02:02:45.188Z,0.40
2022-09-21T02:03:53.805Z,1.80
2022-09-21T02:04:56.336Z,2.50
2022-09-21T02:05:58.513Z,1.80
2022-09-21T02:07:00.985Z,2.20
2022-09-21T02:08:05.322Z,2.20
2022-09-21T02:09:08.544Z,1.90
2022-09-21T02:10:15.067Z,2.00
2022-09-21T02:11:17.328Z,1.70
2022-09-21T02:12:19.578Z,1.80
2022-09-21T02:13:22.538Z,2.10
2022-09-21T02:14:24.693Z,2.00
2022-09-21T02:15:34.813Z,1.50
2022-09-21T02:16:46.581Z,0.80
2022-09-21T02:19:22.257Z,1.40
2022-09-21T02:22:02.283Z,2.10
2022-09-21T02:23:20.499Z,1.90
2022-09-21T02:24:29.653Z,1.60
2022-09-21T02:27:31.156Z,1.90
2022-09-21T02:30:18.193Z,1.80
2022-09-21T02:31:24.358Z,1.80
2022-09-21T02:32:46.895Z,1.90
2022-09-21T02:34:10.982Z,0.80
2022-09-21T02:35:33.733Z,1.90
2022-09-21T02:38:10.050Z,2.10
2022-09-21T02:39:17.876Z,1.70
2022-09-21T02:40:27.437Z,1.60
2022-09-21T02:42:09.612Z,1.80
2022-09-21T02:43:23.862Z,2.50
2022-09-21T02:44:29.916Z,1.80
2022-09-21T02:45:35.041Z,1.90
2022-09-21T02:46:43.280Z,2.00
2022-09-21T02:47:55.247Z,1.00
2022-09-21T02:49:00.004Z,1.40
2022-09-21T02:51:20.786Z,1.70
2022-09-21T02:52:23.279Z,1.30
2022-09-21T02:53:28.061Z,2.00
2022-09-21T02:54:31.463Z,1.70
2022-09-21T02:55:33.593Z,1.80
2022-09-21T02:56:35.913Z,1.10
2022-09-21T02:57:38.098Z,1.80
2022-09-21T02:58:43.713Z,0.90
2022-09-21T02:59:46.529Z,1.80
2022-09-21T03:00:49.477Z,1.20
2022-09-21T03:01:51.824Z,1.09
2022-09-21T03:02:54.100Z,1.80
2022-09-21T03:03:56.160Z,1.60
2022-09-21T03:04:59.324Z,1.80
2022-09-21T03:06:01.567Z,1.40
2022-09-21T03:07:03.934Z,2.10
2022-09-21T03:08:06.022Z,1.80
2022-09-21T03:09:08.436Z,1.70
2022-09-21T03:10:12.109Z,1.70
2022-09-21T03:11:18.052Z,1.50
2022-09-21T03:12:20.655Z,0.80
2022-09-21T03:13:24.176Z,1.30
2022-09-21T03:14:26.934Z,2.30
2022-09-21T03:15:30.116Z,1.55
2022-09-21T03:16:32.541Z,1.80
2022-09-21T03:17:35.241Z,1.30
2022-09-21T03:18:39.405Z,1.20
2022-09-21T03:19:42.305Z,1.90
2022-09-21T03:20:44.845Z,1.80
2022-09-21T03:21:47.627Z,1.27
2022-09-21T03:22:50.132Z,2.00
2022-09-21T03:23:52.460Z,1.70
2022-09-21T03:24:55.010Z,1.20
2022-09-21T03:25:57.675Z,1.50
2022-09-21T03:27:00.422Z,0.73
2022-09-21T03:28:02.605Z,1.90
2022-09-21T03:29:04.804Z,1.10
2022-09-21T03:30:08.421Z,1.55
2022-09-21T03:31:10.660Z,1.70
2022-09-21T03:32:13.722Z,1.60
2022-09-21T03:33:16.833Z,1.80
2022-09-21T03:34:18.982Z,1.80
2022-09-21T03:35:22.315Z,1.10
2022-09-21T03:36:25.049Z,1.50
2022-09-21T03:37:27.110Z,1.70
2022-09-21T03:38:29.237Z,0.60
2022-09-21T03:39:31.301Z,0.90
2022-09-21T03:40:34.280Z,1.55
2022-09-21T03:41:36.672Z,1.70
2022-09-21T03:42:39.870Z,1.60
2022-09-21T03:43:42.803Z,1.50
2022-09-21T03:44:44.945Z,0.90
2022-09-21T03:45:47.440Z,0.90
2022-09-21T03:46:50.899Z,1.50
2022-09-21T03:47:56.665Z,1.90
2022-09-21T03:48:59.819Z,1.20
2022-09-21T03:50:05.570Z,1.50
2022-09-21T03:51:06.419Z,1.20
2022-09-21T03:52:09.892Z,0.73
2022-09-21T03:53:11.977Z,0.00
2022-09-21T03:54:14.649Z,1.80
2022-09-21T03:55:17.503Z,1.80
2022-09-21T03:56:19.921Z,1.60
2022-09-21T03:57:22.194Z,1.50
2022-09-21T03:58:24.346Z,0.80
2022-09-21T03:59:26.702Z,1.60
2022-09-21T04:00:29.787Z,1.30
2022-09-21T04:01:32.456Z,1.20
2022-09-21T04:02:36.288Z,1.36
2022-09-21T04:03:38.572Z,0.80
2022-09-21T04:04:41.209Z,1.20
2022-09-21T04:05:43.286Z,0.80
2022-09-21T04:06:45.606Z,1.50
2022-09-21T04:08:07.504Z,1.00
2022-09-21T04:09:10.192Z,1.60
2022-09-21T04:10:15.265Z,0.90
2022-09-21T04:11:17.726Z,0.90
2022-09-21T04:12:22.631Z,2.30
2022-09-21T04:13:24.796Z,0.70
2022-09-21T04:14:26.949Z,0.40
2022-09-21T04:15:29.226Z,1.40
2022-09-21T04:16:31.552Z,1.00
2022-09-21T04:17:33.763Z,0.80
2022-09-21T04:18:37.495Z,0.70
2022-09-21T04:19:39.689Z,1.20
2022-09-21T04:20:42.997Z,1.60
2022-09-21T04:21:46.241Z,1.40
2022-09-21T04:22:48.953Z,1.20
2022-09-21T04:23:51.067Z,0.80
2022-09-21T04:24:56.164Z,1.70
2022-09-21T04:26:00.101Z,1.30
2022-09-21T04:27:04.113Z,0.00
2022-09-21T04:28:08.056Z,0.80
2022-09-21T04:29:14.011Z,1.10
2022-09-21T04:30:18.295Z,0.50
2022-09-21T04:31:23.256Z,0.80
2022-09-21T04:32:25.981Z,0.80
2022-09-21T04:33:29.891Z,0.40
2022-09-21T04:34:33.879Z,0.80
2022-09-21T04:35:37.798Z,0.80
2022-09-21T04:36:42.235Z,1.20
2022-09-21T04:37:46.334Z,0.80
2022-09-21T04:38:50.469Z,1.70
2022-09-21T04:39:54.380Z,1.40
2022-09-21T04:40:58.333Z,1.00
2022-09-21T04:42:02.821Z,0.90
2022-09-21T04:43:05.574Z,1.36
2022-09-21T04:44:08.146Z,0.80
2022-09-21T04:45:11.073Z,1.20
2022-09-21T04:46:15.378Z,0.80
2022-09-21T04:47:17.931Z,1.30
2022-09-21T04:48:20.774Z,1.50
2022-09-21T04:49:23.528Z,1.18
2022-09-21T04:50:28.860Z,0.80
2022-09-21T04:51:32.868Z,0.80
2022-09-21T04:52:35.041Z,0.80
2022-09-21T04:53:37.914Z,0.90
2022-09-21T04:54:40.685Z,1.20
2022-09-21T04:55:44.550Z,1.10
2022-09-21T04:56:46.907Z,0.70
2022-09-21T04:57:48.884Z,1.10
2022-09-21T04:58:50.992Z,0.90
2022-09-21T04:59:53.295Z,1.60
2022-09-21T05:00:58.488Z,0.00
2022-09-21T05:02:00.706Z,1.50
2022-09-21T05:03:04.108Z,0.80
2022-09-21T05:04:06.427Z,1.00
2022-09-21T05:05:08.851Z,0.80
2022-09-21T05:06:11.963Z,1.20
2022-09-21T05:07:14.449Z,0.50
2022-09-21T05:08:16.570Z,0.80
2022-09-21T05:09:18.779Z,0.10
2022-09-21T05:10:20.970Z,0.80
2022-09-21T05:11:23.703Z,0.80
2022-09-21T05:12:26.893Z,1.55
2022-09-21T05:13:28.934Z,0.60
2022-09-21T05:14:31.835Z,0.50
2022-09-21T05:15:34.650Z,1.90
2022-09-21T05:16:37.167Z,1.00
2022-09-21T05:17:41.269Z,1.30
2022-09-21T05:18:43.980Z,1.00
2022-09-21T05:19:46.463Z,0.82
2022-09-21T05:20:55.580Z,1.10
2022-09-21T05:21:58.161Z,0.80
2022-09-21T05:23:00.644Z,0.30
2022-09-21T05:24:04.827Z,1.00
2022-09-21T05:25:08.568Z,0.90
2022-09-21T05:26:11.513Z,1.60
2022-09-21T05:27:14.194Z,1.00
2022-09-21T05:28:17.641Z,1.82
2022-09-21T05:29:20.567Z,1.00
2022-09-21T05:30:23.366Z,2.00
2022-09-21T05:31:31.362Z,1.90
2022-09-21T05:34:26.096Z,2.40
2022-09-21T05:35:39.134Z,2.10
2022-09-21T05:36:51.175Z,1.80
2022-09-21T05:39:14.456Z,1.70
2022-09-21T05:40:17.663Z,2.10
2022-09-21T05:41:20.859Z,2.30
2022-09-21T05:42:24.658Z,2.80
2022-09-21T05:43:28.171Z,1.70
2022-09-21T05:44:30.935Z,3.00
2022-09-21T05:45:33.897Z,2.60
2022-09-21T05:46:40.456Z,2.27
2022-09-21T05:48:16.621Z,2.50
2022-09-21T05:49:22.139Z,2.70
2022-09-21T05:50:31.142Z,2.40
2022-09-21T05:53:41.198Z,3.50
2022-09-21T05:55:09.689Z,3.10
2022-09-21T05:58:00.771Z,2.80
2022-09-21T06:00:42.420Z,3.50
2022-09-21T06:03:27.948Z,4.20
2022-09-21T06:04:31.745Z,3.50
2022-09-21T06:05:34.095Z,4.50
2022-09-21T06:06:36.740Z,3.80
2022-09-21T06:07:39.135Z,3.40
2022-09-21T06:08:41.336Z,2.20
2022-09-21T06:09:43.787Z,3.20
2022-09-21T06:10:45.893Z,3.40
2022-09-21T06:11:48.895Z,4.00
2022-09-21T06:12:50.956Z,3.60
2022-09-21T06:13:52.950Z,3.30
2022-09-21T06:14:56.615Z,4.90
2022-09-21T06:16:02.251Z,3.90
2022-09-21T06:17:04.721Z,3.40
2022-09-21T06:18:07.182Z,3.60
2022-09-21T06:19:13.384Z,4.00
2022-09-21T06:20:16.077Z,4.40
2022-09-21T06:21:18.311Z,0.90
2022-09-21T06:22:20.992Z,2.78
2022-09-21T06:23:23.569Z,5.00
2022-09-21T06:24:25.671Z,4.00
2022-09-21T06:25:28.320Z,4.50
2022-09-21T06:26:30.942Z,4.80
2022-09-21T06:27:33.046Z,4.40
2022-09-21T06:28:35.134Z,4.00
2022-09-21T06:29:37.457Z,4.40
2022-09-21T06:30:40.661Z,4.00
2022-09-21T06:31:43.946Z,5.40
2022-09-21T06:32:47.058Z,5.30
2022-09-21T06:33:49.062Z,4.60
2022-09-21T06:34:51.510Z,5.80
2022-09-21T06:35:54.529Z,5.10
2022-09-21T06:36:57.159Z,5.10
2022-09-21T06:38:00.257Z,6.50
2022-09-21T06:39:02.629Z,6.30
2022-09-21T06:40:06.430Z,4.90
2022-09-21T06:41:09.785Z,6.00
2022-09-21T06:42:12.367Z,6.10
2022-09-21T06:43:15.427Z,5.60
2022-09-21T06:44:18.001Z,6.20
2022-09-21T06:45:20.375Z,6.45
2022-09-21T06:46:22.998Z,2.10
2022-09-21T06:47:24.964Z,5.90
2022-09-21T06:48:28.144Z,6.30
2022-09-21T06:49:30.504Z,6.00
2022-09-21T06:50:32.762Z,6.10
2022-09-21T06:51:34.853Z,6.50
2022-09-21T06:52:36.831Z,5.60
2022-09-21T06:53:38.822Z,5.90
2022-09-21T06:54:41.484Z,5.40
2022-09-21T06:55:43.563Z,6.60
2022-09-21T06:56:45.757Z,5.20
2022-09-21T06:57:48.821Z,6.00
2022-09-21T06:58:51.310Z,6.00
2022-09-21T06:59:53.872Z,5.64
2022-09-21T07:00:56.283Z,7.00
2022-09-21T07:02:06.381Z,6.70
2022-09-21T07:03:10.624Z,6.40
2022-09-21T07:04:12.666Z,5.90
2022-09-21T07:05:15.961Z,5.50
2022-09-21T07:06:18.558Z,7.00
2022-09-21T07:07:20.544Z,5.80
2022-09-21T07:10:31.774Z,5.50
2022-09-21T07:11:33.743Z,5.40
2022-09-21T07:12:36.178Z,5.60
2022-09-21T07:13:38.970Z,5.70
2022-09-21T07:14:41.642Z,5.18
2022-09-21T07:15:43.871Z,5.30
2022-09-21T07:16:45.960Z,5.40
2022-09-21T07:17:52.595Z,5.30
2022-09-21T07:18:53.207Z,4.70
2022-09-21T07:19:55.452Z,5.30
2022-09-21T07:20:58.686Z,4.50
2022-09-21T07:22:00.901Z,4.80
2022-09-21T07:23:11.148Z,5.60
2022-09-21T07:24:13.250Z,4.60
2022-09-21T07:25:15.494Z,4.40
2022-09-21T07:26:18.797Z,2.00
2022-09-21T07:27:20.943Z,4.70
2022-09-21T07:28:25.137Z,4.80
2022-09-21T07:29:27.662Z,4.60
2022-09-21T07:30:29.917Z,4.70
2022-09-21T07:31:32.033Z,4.20
2022-09-21T07:32:35.844Z,2.60
2022-09-21T07:33:38.203Z,4.60
2022-09-21T07:34:40.425Z,3.70
2022-09-21T07:35:52.005Z,4.80
2022-09-21T07:36:54.674Z,4.00
2022-09-21T07:38:01.631Z,3.80
2022-09-21T07:39:03.949Z,4.50
2022-09-21T07:40:07.954Z,3.80
2022-09-21T07:41:12.218Z,4.10
2022-09-21T07:42:15.312Z,3.50
2022-09-21T07:43:17.995Z,3.60
2022-09-21T07:44:19.980Z,3.10
2022-09-21T07:45:23.457Z,3.80
2022-09-21T07:46:26.376Z,4.50
2022-09-21T07:47:28.387Z,3.80
2022-09-21T07:48:31.441Z,3.70
2022-09-21T07:49:33.685Z,1.70
2022-09-21T07:50:36.542Z,3.30
2022-09-21T07:51:39.203Z,3.80
2022-09-21T07:52:41.193Z,3.00
2022-09-21T07:53:43.457Z,3.60
2022-09-21T07:54:45.442Z,3.10
2022-09-21T07:55:47.514Z,2.70
2022-09-21T07:56:50.095Z,2.90
2022-09-21T07:57:52.069Z,4.10
2022-09-21T07:58:54.240Z,3.00
2022-09-21T07:59:56.974Z,3.80
2022-09-21T08:00:59.283Z,3.60
2022-09-21T08:02:01.361Z,1.50
2022-09-21T08:03:04.547Z,4.10
2022-09-21T08:04:08.434Z,3.27
2022-09-21T08:05:10.714Z,3.00
2022-09-21T08:06:14.421Z,2.70
2022-09-21T08:07:16.481Z,3.90
2022-09-21T08:08:19.589Z,3.80
2022-09-21T08:09:21.736Z,3.00
2022-09-21T08:10:24.391Z,3.00
2022-09-21T08:11:27.601Z,3.40
2022-09-21T08:12:30.113Z,3.90
2022-09-21T08:13:32.194Z,3.90
2022-09-21T08:14:35.376Z,2.20
2022-09-21T08:15:49.479Z,3.70
2022-09-21T08:16:42.628Z,2.90
2022-09-21T08:17:45.872Z,2.70
2022-09-21T08:18:50.569Z,3.10
2022-09-21T08:19:53.215Z,3.50
2022-09-21T08:20:58.981Z,2.60
2022-09-21T08:22:03.113Z,2.00
2022-09-21T08:23:05.798Z,3.70
2022-09-21T08:24:09.068Z,3.30
2022-09-21T08:25:11.205Z,3.40
2022-09-21T08:26:15.130Z,3.10
2022-09-21T08:27:17.554Z,3.30
2022-09-21T08:28:20.118Z,3.00
2022-09-21T08:29:23.715Z,4.20
2022-09-21T08:30:25.986Z,3.50
2022-09-21T08:31:28.186Z,4.00
2022-09-21T08:32:50.038Z,3.90
2022-09-21T08:33:34.763Z,2.90
2022-09-21T08:34:37.796Z,3.50
2022-09-21T08:35:40.002Z,3.20
2022-09-21T08:36:42.195Z,3.00
2022-09-21T08:37:45.654Z,3.50
2022-09-21T08:38:47.655Z,1.60
2022-09-21T08:39:49.642Z,4.30
2022-09-21T08:40:52.307Z,3.90
2022-09-21T08:42:04.011Z,3.30
2022-09-21T08:43:11.112Z,3.70
2022-09-21T08:44:33.385Z,0.70
2022-09-21T08:45:43.998Z,2.30
2022-09-21T08:46:48.155Z,3.30
2022-09-21T08:47:52.430Z,3.10
2022-09-21T08:49:08.368Z,3.20
2022-09-21T08:51:37.375Z,3.60
2022-09-21T08:52:41.299Z,3.10
2022-09-21T08:53:45.590Z,3.40
2022-09-21T08:55:03.936Z,2.40
2022-09-21T08:56:10.351Z,3.60
2022-09-21T08:57:13.394Z,2.70
2022-09-21T08:58:21.566Z,2.70
2022-09-21T08:59:25.186Z,2.80
2022-09-21T09:00:27.467Z,2.80
2022-09-21T09:01:45.420Z,2.90
2022-09-21T09:03:09.629Z,3.20
2022-09-21T09:06:11.840Z,3.00
2022-09-21T09:07:39.881Z,3.20
2022-09-21T09:09:02.606Z,3.00
2022-09-21T09:10:29.453Z,1.80
2022-09-21T09:13:26.982Z,1.90
2022-09-21T09:14:49.582Z,2.00
2022-09-21T09:16:01.412Z,2.00
2022-09-21T09:17:20.051Z,2.20
2022-09-21T09:18:51.093Z,2.00
2022-09-21T09:20:00.012Z,2.10
2022-09-21T09:21:08.535Z,2.70
2022-09-21T09:22:12.465Z,2.70
2022-09-21T09:24:43.033Z,2.10
2022-09-21T09:25:46.499Z,1.20
2022-09-21T09:26:52.129Z,2.30
2022-09-21T09:27:55.620Z,0.90
2022-09-21T09:30:15.321Z,1.10
2022-09-21T09:31:23.818Z,2.90
2022-09-21T09:33:59.833Z,2.80
2022-09-21T09:35:08.460Z,3.20
2022-09-21T09:36:12.119Z,2.00
2022-09-21T09:37:15.481Z,1.70
2022-09-21T09:38:30.380Z,2.20
2022-09-21T09:39:32.634Z,2.70
2022-09-21T09:40:47.514Z,2.80
2022-09-21T09:42:10.364Z,2.80
2022-09-21T09:45:08.217Z,1.90
2022-09-21T09:46:38.050Z,0.20
2022-09-21T09:49:31.248Z,1.00
2022-09-21T09:51:48.334Z,2.60
2022-09-21T09:52:51.457Z,1.40
2022-09-21T09:53:53.581Z,1.90
2022-09-21T09:54:55.683Z,1.40
2022-09-21T09:55:57.772Z,2.30
2022-09-21T09:57:03.122Z,1.90
2022-09-21T09:58:06.968Z,1.30
2022-09-21T10:00:26.618Z,1.80
2022-09-21T10:01:44.893Z,1.30
2022-09-21T10:02:52.126Z,1.90
2022-09-21T10:04:14.360Z,2.50
2022-09-21T10:05:33.810Z,1.80
2022-09-21T10:06:39.371Z,2.20
2022-09-21T10:07:43.734Z,1.50
2022-09-21T10:08:46.114Z,0.60
2022-09-21T10:09:49.178Z,2.00
2022-09-21T10:10:52.569Z,1.90
2022-09-21T10:13:19.270Z,2.30
2022-09-21T10:14:22.957Z,2.00
2022-09-21T10:15:25.287Z,1.90
2022-09-21T10:16:27.433Z,3.00
2022-09-21T10:17:29.565Z,2.20
2022-09-21T10:18:55.103Z,2.10
2022-09-21T10:20:01.022Z,1.50
2022-09-21T10:21:06.917Z,1.60
2022-09-21T10:22:17.895Z,2.20
2022-09-21T10:23:20.499Z,3.00
2022-09-21T10:24:29.821Z,0.90
2022-09-21T10:25:33.215Z,1.80
2022-09-21T10:26:45.301Z,2.30
2022-09-21T10:27:50.246Z,1.60
2022-09-21T10:28:59.891Z,2.00
2022-09-21T10:30:03.048Z,2.90
2022-09-21T10:33:45.306Z,2.20
2022-09-21T10:35:06.144Z,2.20
2022-09-21T10:36:13.466Z,2.80
2022-09-21T10:37:32.363Z,2.00
2022-09-21T10:38:35.395Z,2.40
2022-09-21T10:39:39.576Z,2.00
2022-09-21T10:40:42.525Z,2.20
2022-09-21T10:41:51.508Z,1.90
2022-09-21T10:45:17.666Z,1.80
2022-09-21T10:46:24.717Z,1.90
2022-09-21T10:47:34.999Z,2.40
2022-09-21T10:48:37.217Z,2.50
2022-09-21T10:50:55.791Z,1.80
2022-09-21T10:51:59.829Z,2.30
2022-09-21T10:53:11.751Z,2.80
2022-09-21T10:54:18.023Z,2.20
2022-09-21T10:55:21.160Z,0.50
2022-09-21T10:56:25.637Z,2.20
2022-09-21T10:57:27.965Z,1.60
2022-09-21T10:58:30.289Z,1.60
2022-09-21T10:59:33.150Z,2.60
2022-09-21T11:00:40.972Z,2.60
2022-09-21T11:01:47.642Z,1.70
2022-09-21T11:02:49.837Z,2.10
2022-09-21T11:04:05.903Z,2.80
2022-09-21T11:05:23.157Z,2.30
2022-09-21T11:06:28.909Z,2.60
2022-09-21T11:07:36.761Z,2.20
2022-09-21T11:11:52.738Z,1.80
2022-09-21T11:13:15.536Z,2.50
2022-09-21T11:14:33.724Z,2.10
2022-09-21T11:17:06.004Z,2.50
2022-09-21T11:18:41.380Z,2.30
2022-09-21T11:19:50.488Z,2.20
2022-09-21T11:20:56.182Z,2.70
2022-09-21T11:22:14.037Z,2.80
2022-09-21T11:23:22.816Z,2.30
2022-09-21T11:24:32.718Z,2.30
2022-09-21T11:25:44.352Z,1.60
2022-09-21T11:26:55.912Z,2.60
2022-09-21T11:28:07.961Z,2.10
2022-09-21T11:29:29.304Z,2.30
2022-09-21T11:31:50.567Z,1.80
2022-09-21T11:33:09.217Z,2.20
2022-09-21T11:34:25.381Z,2.30
2022-09-21T11:35:49.116Z,0.80
2022-09-21T11:37:04.219Z,2.70
2022-09-21T11:38:33.745Z,1.70
2022-09-21T11:39:55.478Z,2.00
2022-09-21T11:41:04.269Z,3.00
2022-09-21T11:42:30.261Z,1.90
2022-09-21T11:44:58.211Z,2.30
2022-09-21T11:46:25.801Z,2.60
2022-09-21T11:47:44.299Z,2.50
2022-09-21T11:49:05.702Z,1.30
2022-09-21T11:50:31.105Z,1.90
2022-09-21T11:51:57.280Z,2.00
2022-09-21T11:53:04.753Z,2.00
2022-09-21T11:54:17.026Z,1.20
2022-09-21T11:55:40.404Z,1.70
2022-09-21T11:56:58.782Z,2.20
2022-09-21T11:58:34.677Z,1.60
2022-09-21T11:59:55.352Z,1.80
2022-09-21T12:02:52.807Z,1.90
2022-09-21T12:04:10.369Z,2.10
2022-09-21T12:05:40.428Z,2.00
2022-09-21T12:06:46.487Z,2.00
2022-09-21T12:08:12.016Z,1.00
2022-09-21T12:09:42.793Z,1.90
2022-09-21T12:11:14.263Z,2.00
2022-09-21T12:13:47.795Z,1.30
2022-09-21T12:14:57.233Z,2.10
2022-09-21T12:16:29.209Z,2.30
2022-09-21T12:17:51.993Z,1.10
2022-09-21T12:19:13.801Z,1.10
2022-09-21T12:21:57.518Z,2.00
2022-09-21T12:23:02.804Z,1.80
2022-09-21T12:24:14.226Z,2.10
2022-09-21T12:25:21.571Z,1.80
2022-09-21T12:26:27.094Z,2.10
2022-09-21T12:27:36.192Z,2.10
2022-09-21T12:28:47.228Z,1.40
2022-09-21T12:29:51.933Z,2.20
2022-09-21T12:32:51.997Z,1.90
2022-09-21T12:35:14.203Z,2.00
2022-09-21T12:37:44.577Z,1.10
2022-09-21T12:40:32.526Z,1.60
2022-09-21T12:42:14.256Z,0.90
2022-09-21T12:43:48.024Z,1.90
2022-09-21T12:46:23.371Z,2.00
2022-09-21T12:47:39.617Z,2.40
2022-09-21T12:48:41.656Z,1.60
2022-09-21T12:49:47.581Z,1.70
2022-09-21T12:52:05.312Z,1.00
2022-09-21T12:53:11.477Z,1.40
2022-09-21T12:56:06.435Z,1.00
2022-09-21T12:57:40.739Z,1.90
2022-09-21T12:59:02.452Z,1.40
2022-09-21T13:00:10.197Z,1.30
2022-09-21T13:01:34.613Z,1.30
2022-09-21T13:04:17.594Z,1.30
2022-09-21T13:05:29.210Z,1.90
2022-09-21T13:06:48.427Z,1.60
2022-09-21T13:08:06.939Z,1.10
2022-09-21T13:09:13.761Z,1.40
2022-09-21T13:10:40.817Z,1.10
2022-09-21T13:11:53.602Z,0.90
2022-09-21T13:12:58.746Z,0.90
2022-09-21T13:14:02.915Z,1.00
2022-09-21T13:15:18.011Z,1.40
2022-09-21T13:16:31.740Z,1.40
2022-09-21T13:17:34.304Z,1.40
2022-09-21T13:18:37.591Z,1.70
2022-09-21T13:19:40.137Z,1.10
2022-09-21T13:20:42.367Z,1.55
2022-09-21T13:21:44.494Z,1.70
2022-09-21T13:22:47.715Z,1.40
2022-09-21T13:24:01.013Z,2.00
2022-09-21T13:26:33.599Z,1.00
2022-09-21T13:28:04.991Z,1.80
2022-09-21T13:29:21.133Z,1.10
2022-09-21T13:30:29.511Z,1.80
2022-09-21T13:32:00.604Z,0.50
2022-09-21T13:33:07.162Z,1.30
2022-09-21T13:34:27.108Z,2.00
2022-09-21T13:36:00.015Z,1.10
2022-09-21T13:37:21.644Z,0.80
2022-09-21T13:40:04.797Z,1.00
2022-09-21T13:41:35.434Z,1.20
2022-09-21T13:42:36.010Z,2.80
2022-09-21T13:43:50.638Z,2.40
2022-09-21T13:44:52.874Z,2.60
2022-09-21T13:45:56.410Z,3.00
2022-09-21T13:46:58.931Z,3.00
2022-09-21T13:48:01.956Z,2.55
2022-09-21T13:49:14.409Z,3.64
2022-09-21T13:50:29.486Z,4.50
2022-09-21T13:51:34.634Z,4.50
2022-09-21T13:53:55.439Z,4.20
2022-09-21T13:55:02.614Z,3.80
2022-09-21T13:56:19.101Z,4.90
2022-09-21T13:58:47.682Z,5.20
2022-09-21T14:00:02.552Z,4.00
2022-09-21T14:02:32.201Z,5.30
2022-09-21T14:03:40.337Z,6.40
2022-09-21T14:04:42.732Z,4.30
2022-09-21T14:05:45.976Z,7.30
2022-09-21T14:06:48.555Z,8.00
2022-09-21T14:09:33.656Z,7.30
2022-09-21T14:10:36.840Z,6.80
2022-09-21T14:11:40.340Z,8.30
2022-09-21T14:12:42.571Z,9.50
2022-09-21T14:13:47.389Z,8.60
2022-09-21T14:15:11.393Z,9.00
2022-09-21T14:17:42.332Z,7.90
2022-09-21T14:18:44.365Z,9.20
2022-09-21T14:19:50.126Z,7.80
2022-09-21T14:21:13.101Z,9.10
2022-09-21T14:22:19.023Z,9.20
2022-09-21T14:23:24.963Z,7.80
2022-09-21T14:24:38.395Z,8.50
2022-09-21T14:27:12.744Z,9.10
2022-09-21T14:28:16.672Z,8.20
2022-09-21T14:30:39.561Z,9.60
2022-09-21T14:31:41.662Z,8.80
2022-09-21T14:33:03.043Z,9.50
2022-09-21T14:34:05.811Z,9.40
2022-09-21T14:35:12.266Z,10.50
2022-09-21T14:36:18.948Z,9.50
2022-09-21T14:37:32.528Z,9.30
2022-09-21T14:39:58.244Z,8.50
2022-09-21T14:41:03.123Z,9.30
2022-09-21T14:42:18.572Z,9.90
2022-09-21T14:43:32.102Z,10.50
2022-09-21T14:44:34.148Z,10.80
2022-09-21T14:46:14.565Z,9.90
2022-09-21T14:47:44.770Z,9.20
2022-09-21T14:49:07.600Z,8.20
2022-09-21T14:50:26.184Z,9.10
2022-09-21T14:51:44.843Z,7.90
2022-09-21T14:53:02.952Z,8.30
2022-09-21T14:54:21.080Z,8.00
2022-09-21T14:55:51.389Z,7.80
2022-09-21T14:57:00.875Z,9.30
2022-09-21T14:59:55.638Z,7.10
2022-09-21T15:01:19.777Z,7.80
2022-09-21T15:02:27.468Z,7.70
2022-09-21T15:03:33.900Z,7.40
2022-09-21T15:04:59.154Z,7.80
2022-09-21T15:06:15.667Z,7.30
2022-09-21T15:07:37.167Z,6.10
2022-09-21T15:09:15.173Z,6.00
2022-09-21T15:10:26.317Z,4.70
2022-09-21T15:11:32.387Z,4.40
2022-09-21T15:12:46.769Z,4.80
2022-09-21T15:13:52.160Z,5.00
2022-09-21T15:15:07.482Z,5.00
2022-09-21T15:16:31.313Z,4.90
2022-09-21T15:17:33.532Z,5.00
2022-09-21T15:18:41.040Z,5.00
2022-09-21T15:19:43.175Z,4.20
2022-09-21T15:20:59.279Z,5.70
2022-09-21T15:22:18.588Z,4.50
2022-09-21T15:23:21.337Z,3.90
2022-09-21T15:24:31.264Z,4.00
2022-09-21T15:25:34.427Z,5.30
2022-09-21T15:26:37.285Z,1.90
2022-09-21T15:27:41.775Z,4.80
2022-09-21T15:29:08.375Z,4.20
2022-09-21T15:29:53.519Z,3.10
2022-09-21T15:30:57.079Z,3.90
2022-09-21T15:32:00.404Z,4.00
2022-09-21T15:33:02.548Z,3.10
2022-09-21T15:34:05.876Z,4.00
2022-09-21T15:35:22.297Z,2.90
2022-09-21T15:36:26.067Z,3.70
2022-09-21T15:37:28.359Z,3.90
2022-09-21T15:38:31.453Z,3.80
2022-09-21T15:39:34.303Z,4.10
2022-09-21T15:40:40.424Z,3.00
2022-09-21T15:41:44.421Z,3.90
2022-09-21T15:43:05.143Z,4.80
2022-09-21T15:44:17.609Z,3.00
2022-09-21T15:45:21.248Z,2.20
2022-09-21T15:46:23.512Z,4.00
2022-09-21T15:47:25.656Z,4.00
2022-09-21T15:48:29.825Z,1.40
2022-09-21T15:49:32.620Z,4.10
2022-09-21T15:50:35.045Z,4.18
2022-09-21T15:51:38.162Z,3.80
2022-09-21T15:52:44.941Z,0.00
2022-09-21T15:54:01.798Z,4.00
2022-09-21T15:55:17.518Z,3.90
2022-09-21T15:56:22.052Z,3.70
2022-09-21T15:57:36.151Z,3.00
2022-09-21T15:58:39.960Z,4.50
2022-09-21T15:59:43.670Z,4.40
2022-09-21T16:00:52.910Z,4.10
2022-09-21T16:01:58.481Z,4.40
2022-09-21T16:03:20.625Z,4.20
2022-09-21T16:04:24.407Z,3.90
2022-09-21T16:05:26.525Z,3.60
2022-09-21T16:06:37.072Z,3.90
2022-09-21T16:07:39.517Z,3.80
2022-09-21T16:08:41.777Z,3.70
2022-09-21T16:09:44.627Z,3.40
2022-09-21T16:10:47.390Z,4.00
2022-09-21T16:11:53.094Z,4.10
2022-09-21T16:13:18.997Z,3.90
2022-09-21T16:14:22.302Z,3.40
2022-09-21T16:15:27.617Z,4.45
2022-09-21T16:16:30.008Z,3.00
2022-09-21T16:17:37.028Z,3.60
2022-09-21T16:18:43.039Z,3.30
2022-09-21T16:19:52.121Z,4.90
2022-09-21T16:20:59.469Z,4.30
2022-09-21T16:22:03.699Z,4.10
2022-09-21T16:23:11.509Z,4.00
2022-09-21T16:24:18.037Z,4.60
2022-09-21T16:25:31.558Z,3.60
2022-09-21T16:26:37.303Z,3.10